Fruto, California
Current Conditions -  °F | °C
As of 11:55 AM on Thursday 30 Oct 2014 (Local Time) from KCIC Reporting Station
Broken Clouds Broken Clouds  
Wind Chill: 72°   Ceiling: 25000
Heat Index: 72°   Visibility: 40mi
Dew Point: 50°   Wind: 5mph
Humidity: 46%   Direction: NA
Pressure: 29.94"   Gusts: NA
Location:  39.5041°N, 122.217°W
Report Text: KCIC 301855Z VRB04KT 40SM SCT180 BKN250 22/10 A2994
Loading
Personal Weather Stations






























Interactive Weather Map
Tropical Storm Tracking
New forecast layout! Learn more

10-Day Weather Forecast

Advertisements
Track Severe Weather on mobile